createdAt,value
2022-10-07T00:00:15.763Z,18.10
2022-10-07T00:00:39.122Z,18.50
2022-10-07T00:01:01.937Z,19.40
2022-10-07T00:01:25.074Z,19.70
2022-10-07T00:01:47.799Z,19.80
2022-10-07T00:02:10.831Z,20.30
2022-10-07T00:02:33.781Z,20.70
2022-10-07T00:02:56.461Z,20.70
2022-10-07T00:03:19.817Z,20.40
2022-10-07T00:03:42.509Z,21.30
2022-10-07T00:04:05.231Z,22.00
2022-10-07T00:04:27.951Z,22.90
2022-10-07T00:04:50.561Z,23.00
2022-10-07T00:05:13.244Z,22.30
2022-10-07T00:05:36.031Z,22.20
2022-10-07T00:06:02.713Z,23.10
2022-10-07T00:06:27.184Z,23.90
2022-10-07T00:06:49.936Z,23.30
2022-10-07T00:07:15.191Z,23.70
2022-10-07T00:07:37.901Z,23.70
2022-10-07T00:08:00.691Z,23.80
2022-10-07T00:08:23.401Z,24.20
2022-10-07T00:08:47.497Z,24.00
2022-10-07T00:09:10.229Z,23.80
2022-10-07T00:09:32.951Z,24.40
2022-10-07T00:09:55.617Z,25.00
2022-10-07T00:10:18.268Z,25.20
2022-10-07T00:10:41.756Z,25.40
2022-10-07T00:11:06.385Z,25.60
2022-10-07T00:11:29.201Z,25.30
2022-10-07T00:11:54.021Z,25.70
2022-10-07T00:12:16.892Z,26.00
2022-10-07T00:12:40.344Z,26.70
2022-10-07T00:13:03.002Z,26.00
2022-10-07T00:13:25.861Z,25.40
2022-10-07T00:13:49.830Z,25.70
2022-10-07T00:14:12.632Z,25.10
2022-10-07T00:14:36.433Z,24.80
2022-10-07T00:14:59.167Z,25.40
2022-10-07T00:15:23.989Z,25.40
2022-10-07T00:15:47.653Z,25.40
2022-10-07T00:16:11.608Z,26.20
2022-10-07T00:16:36.037Z,27.00
2022-10-07T00:17:01.534Z,26.80
2022-10-07T00:17:24.432Z,26.70
2022-10-07T00:17:50.624Z,26.90
2022-10-07T00:18:13.353Z,27.30
2022-10-07T00:18:36.092Z,26.90
2022-10-07T00:19:00.648Z,26.40
2022-10-07T00:19:23.385Z,26.00
2022-10-07T00:19:46.072Z,26.00
2022-10-07T00:20:09.871Z,25.50
2022-10-07T00:20:38.278Z,26.40
2022-10-07T00:21:03.857Z,26.40
2022-10-07T00:21:28.125Z,26.00
2022-10-07T00:21:51.571Z,25.90
2022-10-07T00:22:16.152Z,26.40
2022-10-07T00:22:38.892Z,25.70
2022-10-07T00:23:01.578Z,25.50
2022-10-07T00:23:24.291Z,25.20
2022-10-07T00:23:47.659Z,24.70
2022-10-07T00:24:11.337Z,24.40
2022-10-07T00:24:34.209Z,23.90
2022-10-07T00:24:56.886Z,23.50
2022-10-07T00:25:19.664Z,23.50
2022-10-07T00:25:42.332Z,24.30
2022-10-07T00:26:06.053Z,23.80
2022-10-07T00:26:30.413Z,23.70
2022-10-07T00:26:53.101Z,24.10
2022-10-07T00:27:15.803Z,23.90
2022-10-07T00:27:38.593Z,24.20
2022-10-07T00:28:01.447Z,24.20
2022-10-07T00:28:25.617Z,24.40
2022-10-07T00:28:48.432Z,24.60
2022-10-07T00:29:11.133Z,25.20
2022-10-07T00:29:33.914Z,25.60
2022-10-07T00:29:56.599Z,25.90
2022-10-07T00:30:19.265Z,26.20
2022-10-07T00:30:41.995Z,26.40
2022-10-07T00:31:08.559Z,26.20
2022-10-07T00:31:32.544Z,26.10
2022-10-07T00:31:57.335Z,26.50
2022-10-07T00:32:20.414Z,26.00
2022-10-07T00:32:43.211Z,25.90
2022-10-07T00:33:05.934Z,26.40
2022-10-07T00:33:30.801Z,26.50
2022-10-07T00:33:53.914Z,26.40
2022-10-07T00:34:16.624Z,26.80
2022-10-07T00:34:42.098Z,26.70
2022-10-07T00:35:05.494Z,27.60
2022-10-07T00:35:28.183Z,27.30
2022-10-07T00:35:51.880Z,27.50
2022-10-07T00:36:15.840Z,27.50
2022-10-07T00:36:39.186Z,27.30
2022-10-07T00:37:02.060Z,27.60
2022-10-07T00:37:26.234Z,28.00
2022-10-07T00:37:48.919Z,29.60
2022-10-07T00:38:11.709Z,29.30
2022-10-07T00:38:34.376Z,29.40
2022-10-07T00:38:57.809Z,29.10
2022-10-07T00:39:20.604Z,28.70
2022-10-07T00:39:43.684Z,28.60
2022-10-07T00:40:06.950Z,28.50
2022-10-07T00:40:29.680Z,27.90
2022-10-07T00:40:52.404Z,28.10
2022-10-07T00:41:17.798Z,28.00
2022-10-07T00:41:41.413Z,27.90
2022-10-07T00:42:04.668Z,27.70
2022-10-07T00:42:29.939Z,28.10
2022-10-07T00:42:52.680Z,27.90
2022-10-07T00:43:22.267Z,28.00
2022-10-07T00:43:45.024Z,28.30
2022-10-07T00:44:31.853Z,28.80
2022-10-07T00:44:54.559Z,29.30
2022-10-07T00:45:19.583Z,29.50
2022-10-07T00:45:42.840Z,29.80
2022-10-07T00:46:12.553Z,30.00
2022-10-07T00:46:36.255Z,30.20
2022-10-07T00:46:59.025Z,30.60
2022-10-07T00:47:24.823Z,31.60
2022-10-07T00:47:48.764Z,32.50
2022-10-07T00:48:11.504Z,32.50
2022-10-07T00:48:34.706Z,32.90
2022-10-07T00:48:58.065Z,33.10
2022-10-07T00:49:20.805Z,33.40
2022-10-07T00:49:45.505Z,33.70
2022-10-07T00:50:09.590Z,34.00
2022-10-07T00:50:32.460Z,34.00
2022-10-07T00:50:56.301Z,34.30
2022-10-07T00:51:18.975Z,34.50
2022-10-07T00:51:41.596Z,34.30
2022-10-07T00:52:04.304Z,34.30
2022-10-07T00:52:30.594Z,34.40
2022-10-07T00:52:55.658Z,34.80
2022-10-07T00:53:18.470Z,34.10
2022-10-07T00:53:41.212Z,33.60
2022-10-07T00:54:05.442Z,33.90
2022-10-07T00:54:28.154Z,33.60
2022-10-07T00:54:53.155Z,33.60
2022-10-07T00:55:18.469Z,34.00
2022-10-07T00:55:41.157Z,34.10
2022-10-07T00:56:04.444Z,34.20
2022-10-07T00:56:27.339Z,34.00
2022-10-07T00:56:51.174Z,33.50
2022-10-07T00:57:13.959Z,33.20
2022-10-07T00:57:37.755Z,33.00
2022-10-07T00:58:01.901Z,32.30
2022-10-07T00:58:24.605Z,32.80
2022-10-07T00:58:47.321Z,33.40
2022-10-07T00:59:10.120Z,33.50
2022-10-07T00:59:32.805Z,33.10
2022-10-07T00:59:55.652Z,33.10
2022-10-07T01:00:18.446Z,33.30
2022-10-07T01:00:41.100Z,33.50
2022-10-07T01:01:03.894Z,33.70
2022-10-07T01:01:26.898Z,33.60
2022-10-07T01:01:50.911Z,33.70
2022-10-07T01:02:13.639Z,33.50
2022-10-07T01:02:36.367Z,33.70
2022-10-07T01:03:00.269Z,33.40
2022-10-07T01:03:23.029Z,33.10
2022-10-07T01:03:46.324Z,33.30
2022-10-07T01:04:09.770Z,32.70
2022-10-07T01:04:32.483Z,32.50
2022-10-07T01:04:55.458Z,32.50
2022-10-07T01:05:18.288Z,33.10
2022-10-07T01:05:40.958Z,32.70
2022-10-07T01:06:04.348Z,32.70
2022-10-07T01:06:27.069Z,32.60
2022-10-07T01:06:49.838Z,32.90
2022-10-07T01:07:12.612Z,32.90
2022-10-07T01:07:36.804Z,33.00
2022-10-07T01:07:59.698Z,32.60
2022-10-07T01:08:22.563Z,32.60
2022-10-07T01:08:45.713Z,32.40
2022-10-07T01:09:08.423Z,33.00
2022-10-07T01:09:32.249Z,32.70
2022-10-07T01:09:55.043Z,32.50
2022-10-07T01:10:20.283Z,32.60
2022-10-07T01:10:47.684Z,32.10
2022-10-07T01:11:15.606Z,32.50
2022-10-07T01:11:42.719Z,32.70
2022-10-07T01:12:08.328Z,32.90
2022-10-07T01:12:38.414Z,33.10
2022-10-07T01:13:05.329Z,32.80
2022-10-07T01:13:32.378Z,33.50
2022-10-07T01:14:02.388Z,32.50
2022-10-07T01:14:34.178Z,31.70
2022-10-07T01:15:00.153Z,31.30
2022-10-07T01:15:28.474Z,31.00
2022-10-07T01:15:53.345Z,31.60
2022-10-07T01:16:23.649Z,31.70
2022-10-07T01:16:50.577Z,32.10
2022-10-07T01:17:20.314Z,31.90
2022-10-07T01:17:47.184Z,32.40
2022-10-07T01:18:15.843Z,32.10
2022-10-07T01:18:42.251Z,31.70
2022-10-07T01:19:10.876Z,31.70
2022-10-07T01:19:54.338Z,31.90
2022-10-07T01:20:23.539Z,32.50
2022-10-07T01:20:50.374Z,32.50
2022-10-07T01:21:18.732Z,32.40
2022-10-07T01:21:44.361Z,31.80
2022-10-07T01:22:14.890Z,31.60
2022-10-07T01:22:44.321Z,32.00
2022-10-07T01:23:37.218Z,31.50
2022-10-07T01:24:07.208Z,31.50
2022-10-07T01:24:33.470Z,32.20
2022-10-07T01:25:03.622Z,31.60
2022-10-07T01:25:32.879Z,31.20
2022-10-07T01:26:20.682Z,31.10
2022-10-07T01:26:56.240Z,30.90
2022-10-07T01:27:19.140Z,31.00
2022-10-07T01:27:43.837Z,30.80
2022-10-07T01:28:08.409Z,31.00
2022-10-07T01:28:32.238Z,31.50
2022-10-07T01:28:56.475Z,31.50
2022-10-07T01:29:21.975Z,31.80
2022-10-07T01:29:47.621Z,32.00
2022-10-07T01:30:10.394Z,32.10
2022-10-07T01:30:33.174Z,32.00
2022-10-07T01:30:58.446Z,32.00
2022-10-07T01:31:22.985Z,31.50
2022-10-07T01:31:49.798Z,31.40
2022-10-07T01:32:14.467Z,32.10
2022-10-07T01:32:38.081Z,32.80
2022-10-07T01:33:03.208Z,33.00
2022-10-07T01:33:28.220Z,32.70
2022-10-07T01:33:51.040Z,32.80
2022-10-07T01:34:14.237Z,33.00
2022-10-07T01:34:37.060Z,33.00
2022-10-07T01:35:00.341Z,33.00
2022-10-07T01:35:25.339Z,33.50
2022-10-07T01:35:50.066Z,34.00
2022-10-07T01:36:15.591Z,33.90
2022-10-07T01:36:38.400Z,32.40
2022-10-07T01:37:02.583Z,31.50
2022-10-07T01:37:25.269Z,32.00
2022-10-07T01:37:49.489Z,32.30
2022-10-07T01:38:12.223Z,32.60
2022-10-07T01:38:36.323Z,32.70
2022-10-07T01:39:02.888Z,32.90
2022-10-07T01:39:27.929Z,33.50
2022-10-07T01:39:52.933Z,33.90
2022-10-07T01:40:17.609Z,33.70
2022-10-07T01:40:42.333Z,33.50
2022-10-07T01:41:08.814Z,33.60
2022-10-07T01:41:31.683Z,33.70
2022-10-07T01:41:55.928Z,34.10
2022-10-07T01:42:19.087Z,34.10
2022-10-07T01:42:41.768Z,35.70
2022-10-07T01:43:04.472Z,35.30
2022-10-07T01:43:27.317Z,34.60
2022-10-07T01:43:52.782Z,33.80
2022-10-07T01:44:15.662Z,33.60
2022-10-07T01:44:40.351Z,33.90
2022-10-07T01:45:05.181Z,33.80
2022-10-07T01:45:28.671Z,33.80
2022-10-07T01:45:52.831Z,33.80
2022-10-07T01:46:21.462Z,33.90
2022-10-07T01:46:44.321Z,33.40
2022-10-07T01:47:07.691Z,33.40
2022-10-07T01:47:30.432Z,33.80
2022-10-07T01:47:53.111Z,33.90
2022-10-07T01:48:15.845Z,33.10
2022-10-07T01:48:38.617Z,32.40
2022-10-07T01:49:01.270Z,33.00
2022-10-07T01:49:24.063Z,32.60
2022-10-07T01:49:46.721Z,32.10
2022-10-07T01:50:12.656Z,31.70
2022-10-07T01:50:35.417Z,31.90
2022-10-07T01:51:00.083Z,32.20
2022-10-07T01:51:25.745Z,32.20
2022-10-07T01:51:52.641Z,32.20
2022-10-07T01:52:24.976Z,30.70
2022-10-07T01:53:13.130Z,31.70
2022-10-07T01:53:44.522Z,31.30
2022-10-07T01:54:20.362Z,31.20
2022-10-07T01:54:57.782Z,31.60
2022-10-07T01:55:45.468Z,31.10
2022-10-07T01:56:17.918Z,30.80
2022-10-07T01:56:50.232Z,30.70
2022-10-07T01:57:18.726Z,30.00
2022-10-07T01:57:45.112Z,29.70
2022-10-07T01:58:14.813Z,30.00
2022-10-07T01:58:50.858Z,30.00
2022-10-07T01:59:30.653Z,30.80
2022-10-07T02:00:05.728Z,31.20
2022-10-07T02:00:28.409Z,31.70
2022-10-07T02:00:54.052Z,32.10
2022-10-07T02:01:19.404Z,31.90
2022-10-07T02:01:47.163Z,31.90
2022-10-07T02:02:13.923Z,32.50
2022-10-07T02:02:53.438Z,33.10
2022-10-07T02:03:25.200Z,33.30
2022-10-07T02:04:04.161Z,33.60
2022-10-07T02:04:38.084Z,33.80
2022-10-07T02:05:03.710Z,33.90
2022-10-07T02:05:31.684Z,34.20
2022-10-07T02:05:54.960Z,34.70
2022-10-07T02:06:20.978Z,34.60
2022-10-07T02:06:49.698Z,34.80
2022-10-07T02:07:18.505Z,35.10
2022-10-07T02:07:46.229Z,34.00
2022-10-07T02:08:15.739Z,34.10
2022-10-07T02:08:41.314Z,34.20
2022-10-07T02:09:05.927Z,34.60
2022-10-07T02:09:32.257Z,35.00
2022-10-07T02:09:59.422Z,35.60
2022-10-07T02:10:24.318Z,35.90
2022-10-07T02:10:54.932Z,35.50
2022-10-07T02:11:19.843Z,33.80
2022-10-07T02:11:42.599Z,33.50
2022-10-07T02:12:08.323Z,33.90
2022-10-07T02:12:34.569Z,33.40
2022-10-07T02:12:59.843Z,33.60
2022-10-07T02:13:26.169Z,33.40
2022-10-07T02:13:58.563Z,33.30
2022-10-07T02:14:22.169Z,33.20
2022-10-07T02:14:49.274Z,33.20
2022-10-07T02:15:14.058Z,33.20
2022-10-07T02:15:39.220Z,33.10
2022-10-07T02:16:05.751Z,33.30
2022-10-07T02:16:32.874Z,33.30
2022-10-07T02:16:57.039Z,32.80
2022-10-07T02:17:20.967Z,32.50
2022-10-07T02:17:47.073Z,32.10
2022-10-07T02:18:12.424Z,32.30
2022-10-07T02:18:35.126Z,32.60
2022-10-07T02:18:58.749Z,31.60
2022-10-07T02:19:22.795Z,31.30
2022-10-07T02:19:47.674Z,30.00
2022-10-07T02:20:13.329Z,30.10
2022-10-07T02:20:37.457Z,30.70
2022-10-07T02:21:00.645Z,30.40
2022-10-07T02:21:25.135Z,30.80
2022-10-07T02:21:49.621Z,30.00
2022-10-07T02:22:12.632Z,30.90
2022-10-07T02:22:37.732Z,29.80
2022-10-07T02:23:02.557Z,29.60
2022-10-07T02:23:28.905Z,29.70
2022-10-07T02:23:52.140Z,29.80
2022-10-07T02:24:14.848Z,30.10
2022-10-07T02:24:40.803Z,30.30
2022-10-07T02:25:03.519Z,30.80
2022-10-07T02:25:26.899Z,31.00
2022-10-07T02:25:50.749Z,31.40
2022-10-07T02:26:14.063Z,31.30
2022-10-07T02:26:36.727Z,31.30
2022-10-07T02:27:00.212Z,31.30
2022-10-07T02:27:24.997Z,31.50
2022-10-07T02:27:50.096Z,31.70
2022-10-07T02:28:12.926Z,31.30
2022-10-07T02:28:35.837Z,31.40
2022-10-07T02:28:58.719Z,31.30
2022-10-07T02:29:25.224Z,31.00
2022-10-07T02:29:47.935Z,31.30
2022-10-07T02:30:12.149Z,31.30
2022-10-07T02:30:34.935Z,30.70
2022-10-07T02:31:00.609Z,31.10
2022-10-07T02:31:27.576Z,30.90
2022-10-07T02:31:50.710Z,30.60
2022-10-07T02:32:15.799Z,30.50
2022-10-07T02:32:39.388Z,30.10
2022-10-07T02:33:04.065Z,30.70
2022-10-07T02:33:27.861Z,30.50
2022-10-07T02:33:53.466Z,30.90
2022-10-07T02:34:20.264Z,31.60
2022-10-07T02:34:43.695Z,32.10
2022-10-07T02:35:09.418Z,32.20
2022-10-07T02:35:33.497Z,32.30
2022-10-07T02:35:57.111Z,32.70
2022-10-07T02:36:22.409Z,32.80
2022-10-07T02:36:50.956Z,32.60
2022-10-07T02:37:17.784Z,32.60
2022-10-07T02:37:40.489Z,33.10
2022-10-07T02:38:05.315Z,32.80
2022-10-07T02:38:30.549Z,33.10
2022-10-07T02:38:53.255Z,33.50
2022-10-07T02:39:16.025Z,33.50
2022-10-07T02:39:38.817Z,32.40
2022-10-07T02:40:01.526Z,32.20
2022-10-07T02:40:27.074Z,31.20
2022-10-07T02:40:58.084Z,30.00
2022-10-07T02:41:33.944Z,30.70
2022-10-07T02:42:00.329Z,30.80
2022-10-07T02:42:25.474Z,30.40
2022-10-07T02:42:53.504Z,29.40
2022-10-07T02:43:18.678Z,29.50
2022-10-07T02:43:44.810Z,30.40
2022-10-07T02:44:14.490Z,29.80
2022-10-07T02:44:41.471Z,29.50
2022-10-07T02:45:09.124Z,29.70
2022-10-07T02:45:35.689Z,29.50
2022-10-07T02:46:01.764Z,29.30
2022-10-07T02:46:29.913Z,29.40
2022-10-07T02:46:54.825Z,29.40
2022-10-07T02:47:20.079Z,29.40
2022-10-07T02:47:45.685Z,29.30
2022-10-07T02:48:11.929Z,28.80
2022-10-07T02:48:37.449Z,27.70
2022-10-07T02:49:02.240Z,27.80
2022-10-07T02:49:24.975Z,28.70
2022-10-07T02:49:49.609Z,29.30
2022-10-07T02:50:13.768Z,28.30
2022-10-07T02:50:38.537Z,28.60
2022-10-07T02:51:04.549Z,28.70
2022-10-07T02:51:29.288Z,28.40
2022-10-07T02:51:54.888Z,28.60
2022-10-07T02:52:19.434Z,28.20
2022-10-07T02:52:42.258Z,28.30
2022-10-07T02:53:05.491Z,28.20
2022-10-07T02:53:28.708Z,28.00
2022-10-07T02:53:51.387Z,27.70
2022-10-07T02:54:14.338Z,27.60
2022-10-07T02:54:39.532Z,27.60
2022-10-07T02:55:04.490Z,27.80
2022-10-07T02:55:27.204Z,27.70
2022-10-07T02:55:50.082Z,27.90
2022-10-07T02:56:12.793Z,28.30
2022-10-07T02:56:37.939Z,28.20
2022-10-07T02:57:00.894Z,27.50
2022-10-07T02:57:24.000Z,27.20
2022-10-07T02:57:48.093Z,27.90
2022-10-07T02:58:12.570Z,27.50
2022-10-07T02:58:35.403Z,28.40
2022-10-07T02:58:58.260Z,28.50
2022-10-07T02:59:21.067Z,29.00
2022-10-07T02:59:44.175Z,29.60
2022-10-07T03:00:11.117Z,29.40
2022-10-07T03:00:35.830Z,29.40
2022-10-07T03:00:59.856Z,29.30
2022-10-07T03:01:25.317Z,29.40
2022-10-07T03:01:48.867Z,28.80
2022-10-07T03:02:12.888Z,28.80
2022-10-07T03:02:37.278Z,28.80
2022-10-07T03:03:03.334Z,29.30
2022-10-07T03:03:26.121Z,29.30
2022-10-07T03:03:49.007Z,29.90
2022-10-07T03:04:11.848Z,29.80
2022-10-07T03:04:34.534Z,29.80
2022-10-07T03:04:57.976Z,29.60
2022-10-07T03:05:21.529Z,29.90
2022-10-07T03:05:44.178Z,30.30
2022-10-07T03:06:06.907Z,30.60
2022-10-07T03:06:30.578Z,30.90
2022-10-07T03:06:53.584Z,31.20
2022-10-07T03:07:17.298Z,31.50
2022-10-07T03:07:40.013Z,32.00
2022-10-07T03:08:04.078Z,33.00
2022-10-07T03:08:27.049Z,32.20
2022-10-07T03:08:49.764Z,31.70
2022-10-07T03:09:12.496Z,31.90
2022-10-07T03:09:35.317Z,31.90
2022-10-07T03:09:58.079Z,32.30
2022-10-07T03:10:20.911Z,32.60
2022-10-07T03:10:46.192Z,32.70
2022-10-07T03:11:09.171Z,33.70
2022-10-07T03:11:32.127Z,34.50
2022-10-07T03:11:54.785Z,35.60
2022-10-07T03:12:20.240Z,36.00
2022-10-07T03:12:43.376Z,36.00
2022-10-07T03:13:06.093Z,36.20
2022-10-07T03:13:31.376Z,36.70
2022-10-07T03:13:54.399Z,37.10
2022-10-07T03:14:17.156Z,38.10
2022-10-07T03:14:39.810Z,38.20
2022-10-07T03:15:02.505Z,38.40
2022-10-07T03:15:26.274Z,38.40
2022-10-07T03:15:49.000Z,38.60
2022-10-07T03:16:11.839Z,38.70
2022-10-07T03:16:34.754Z,38.80
2022-10-07T03:16:57.863Z,39.30
2022-10-07T03:17:20.677Z,40.10
2022-10-07T03:17:43.656Z,40.80
2022-10-07T03:18:07.855Z,40.60
2022-10-07T03:18:30.769Z,40.60
2022-10-07T03:18:54.334Z,40.80
2022-10-07T03:19:17.629Z,41.10
2022-10-07T03:19:40.640Z,41.30
2022-10-07T03:20:03.414Z,41.80
2022-10-07T03:20:30.253Z,41.50
2022-10-07T03:20:53.944Z,41.30
2022-10-07T03:21:16.639Z,41.40
2022-10-07T03:21:42.343Z,41.00
2022-10-07T03:22:05.174Z,40.80
2022-10-07T03:22:29.624Z,40.70
2022-10-07T03:22:52.444Z,40.70
2022-10-07T03:23:15.360Z,40.60
2022-10-07T03:23:38.777Z,40.30
2022-10-07T03:24:07.519Z,40.00
2022-10-07T03:24:31.284Z,39.90
2022-10-07T03:24:56.900Z,40.00
2022-10-07T03:25:19.607Z,39.70
2022-10-07T03:25:42.676Z,38.60
2022-10-07T03:26:05.770Z,37.40
2022-10-07T03:26:28.494Z,36.80
2022-10-07T03:26:51.279Z,36.30
2022-10-07T03:27:14.045Z,36.30
2022-10-07T03:27:36.831Z,36.30
2022-10-07T03:27:59.559Z,36.00
2022-10-07T03:28:23.109Z,36.50
2022-10-07T03:28:47.425Z,36.00
2022-10-07T03:29:10.590Z,35.90
2022-10-07T03:29:34.912Z,36.00
2022-10-07T03:29:58.939Z,35.90
2022-10-07T03:30:24.388Z,36.30
2022-10-07T03:30:50.193Z,36.50
2022-10-07T03:31:14.487Z,37.20
2022-10-07T03:31:37.474Z,37.70
2022-10-07T03:32:00.225Z,37.70
2022-10-07T03:32:22.894Z,37.10
2022-10-07T03:32:45.634Z,36.60
2022-10-07T03:33:08.644Z,35.20
2022-10-07T03:33:31.282Z,34.30
2022-10-07T03:33:55.683Z,33.80
2022-10-07T03:34:21.269Z,33.90
2022-10-07T03:34:44.149Z,33.30
2022-10-07T03:35:08.313Z,33.00
2022-10-07T03:35:31.764Z,33.70
2022-10-07T03:35:54.565Z,33.70
2022-10-07T03:36:17.363Z,33.40
2022-10-07T03:36:40.068Z,32.90
2022-10-07T03:37:02.740Z,32.30
2022-10-07T03:37:25.623Z,31.80
2022-10-07T03:37:48.347Z,29.80
2022-10-07T03:38:11.103Z,29.50
2022-10-07T03:38:33.788Z,27.30
2022-10-07T03:38:56.516Z,26.40
2022-10-07T03:39:19.248Z,23.70
2022-10-07T03:39:42.253Z,21.70
2022-10-07T03:40:06.268Z,21.40
2022-10-07T03:40:29.031Z,22.20
2022-10-07T03:40:51.674Z,23.00
2022-10-07T03:41:14.397Z,24.00
2022-10-07T03:41:37.413Z,23.60
2022-10-07T03:42:01.037Z,22.90
2022-10-07T03:42:24.507Z,22.50
2022-10-07T03:42:48.237Z,22.40
2022-10-07T03:43:10.870Z,22.20
2022-10-07T03:43:33.763Z,23.60
2022-10-07T03:43:59.351Z,26.10
2022-10-07T03:44:22.629Z,26.30
2022-10-07T03:44:46.598Z,25.90
2022-10-07T03:45:10.237Z,26.60
2022-10-07T03:45:32.924Z,27.90
2022-10-07T03:45:56.990Z,29.60
2022-10-07T03:46:19.848Z,30.00
2022-10-07T03:46:42.764Z,30.00
2022-10-07T03:47:10.403Z,29.90
2022-10-07T03:47:33.684Z,30.30
2022-10-07T03:47:56.347Z,30.20
2022-10-07T03:48:19.057Z,30.40
2022-10-07T03:48:41.771Z,30.00
2022-10-07T03:49:04.941Z,30.20
2022-10-07T03:49:27.596Z,29.90
2022-10-07T03:49:50.490Z,29.70
2022-10-07T03:50:13.212Z,29.50
2022-10-07T03:50:36.691Z,30.00
2022-10-07T03:50:59.347Z,30.60
2022-10-07T03:51:24.863Z,30.30
2022-10-07T03:51:47.991Z,30.40
2022-10-07T03:52:10.731Z,30.60
2022-10-07T03:52:33.572Z,31.10
2022-10-07T03:52:56.471Z,31.50
2022-10-07T03:53:19.337Z,31.40
2022-10-07T03:53:42.012Z,30.40
2022-10-07T03:54:04.872Z,30.30
2022-10-07T03:54:28.647Z,30.70
2022-10-07T03:54:52.670Z,30.80
2022-10-07T03:55:16.417Z,30.90
2022-10-07T03:55:39.292Z,30.60
2022-10-07T03:56:02.004Z,31.30
2022-10-07T03:56:24.791Z,30.50
2022-10-07T03:56:47.582Z,30.10
2022-10-07T03:57:31.812Z,32.10
2022-10-07T03:57:59.728Z,33.40
2022-10-07T03:58:22.919Z,31.90
2022-10-07T03:58:45.604Z,32.60
2022-10-07T03:59:09.729Z,32.40
2022-10-07T03:59:33.314Z,31.90
2022-10-07T03:59:55.955Z,31.60
2022-10-07T04:00:20.800Z,31.50
2022-10-07T04:00:43.610Z,32.00
2022-10-07T04:01:07.199Z,32.40
2022-10-07T04:01:31.797Z,31.30
2022-10-07T04:01:57.385Z,31.80
2022-10-07T04:02:21.406Z,31.60
2022-10-07T04:02:44.107Z,31.10
2022-10-07T04:03:07.836Z,31.60
2022-10-07T04:03:30.737Z,32.10
2022-10-07T04:03:53.810Z,31.70
2022-10-07T04:04:16.557Z,31.40
2022-10-07T04:04:39.438Z,32.00
2022-10-07T04:05:02.150Z,32.10
2022-10-07T04:05:24.816Z,32.30
2022-10-07T04:05:58.351Z,31.70
2022-10-07T04:06:21.117Z,32.60
2022-10-07T04:06:43.920Z,33.50
2022-10-07T04:07:07.041Z,33.80
2022-10-07T04:07:29.756Z,34.20
2022-10-07T04:07:52.543Z,34.50
2022-10-07T04:08:17.838Z,34.60
2022-10-07T04:08:41.397Z,34.70
2022-10-07T04:09:04.530Z,34.50
2022-10-07T04:09:27.255Z,33.80
2022-10-07T04:09:50.080Z,33.40
2022-10-07T04:10:14.620Z,32.90
2022-10-07T04:10:37.305Z,32.50
2022-10-07T04:11:00.145Z,32.60
2022-10-07T04:11:24.644Z,32.00
2022-10-07T04:11:47.370Z,32.20
2022-10-07T04:12:10.198Z,32.40
2022-10-07T04:12:33.781Z,32.70
2022-10-07T04:12:56.514Z,32.00
2022-10-07T04:13:19.410Z,31.90
2022-10-07T04:13:42.086Z,31.30
2022-10-07T04:14:04.814Z,30.10
2022-10-07T04:14:28.925Z,30.00
2022-10-07T04:14:52.678Z,30.00
2022-10-07T04:15:15.496Z,31.00
2022-10-07T04:15:39.044Z,31.80
2022-10-07T04:16:06.823Z,31.60
2022-10-07T04:16:29.801Z,31.00
2022-10-07T04:16:52.649Z,31.80
2022-10-07T04:17:16.859Z,32.10
2022-10-07T04:17:39.580Z,31.30
2022-10-07T04:18:02.345Z,31.20
2022-10-07T04:18:25.114Z,30.70
2022-10-07T04:18:47.839Z,30.90
2022-10-07T04:19:10.549Z,31.10
2022-10-07T04:19:33.620Z,31.00
2022-10-07T04:19:56.425Z,31.50
2022-10-07T04:20:19.084Z,31.30
2022-10-07T04:20:41.810Z,31.90
2022-10-07T04:21:04.535Z,32.00
2022-10-07T04:21:27.309Z,31.60
2022-10-07T04:21:50.050Z,30.70
2022-10-07T04:22:12.830Z,30.60
2022-10-07T04:22:36.334Z,29.30
2022-10-07T04:22:59.125Z,28.00
2022-10-07T04:23:21.803Z,27.80
2022-10-07T04:23:44.606Z,28.90
2022-10-07T04:24:07.357Z,28.70
2022-10-07T04:24:33.013Z,27.40
2022-10-07T04:25:31.047Z,25.80
2022-10-07T04:25:53.794Z,25.50
2022-10-07T04:26:16.520Z,26.50
2022-10-07T04:26:39.323Z,26.30
2022-10-07T04:27:05.170Z,28.10
2022-10-07T04:27:50.215Z,28.30
2022-10-07T04:28:16.469Z,28.80
2022-10-07T04:28:39.366Z,28.60
2022-10-07T04:29:02.255Z,28.00
2022-10-07T04:29:25.073Z,27.30
2022-10-07T04:29:49.260Z,26.80
2022-10-07T04:30:13.994Z,27.10
2022-10-07T04:30:39.840Z,26.90
2022-10-07T04:31:04.090Z,27.30
2022-10-07T04:31:27.704Z,28.50
2022-10-07T04:31:50.511Z,29.20
2022-10-07T04:32:13.283Z,29.10
2022-10-07T04:32:36.651Z,29.40
2022-10-07T04:32:59.336Z,29.00
2022-10-07T04:33:22.624Z,29.70
2022-10-07T04:33:46.502Z,29.90
2022-10-07T04:34:10.073Z,30.30
2022-10-07T04:34:32.836Z,31.10
2022-10-07T04:34:55.526Z,31.60
2022-10-07T04:35:18.232Z,31.80
2022-10-07T04:35:41.282Z,31.30
2022-10-07T04:36:04.755Z,30.60
2022-10-07T04:36:27.676Z,30.30
2022-10-07T04:36:50.421Z,30.50
2022-10-07T04:37:13.112Z,31.00
2022-10-07T04:37:36.040Z,30.90
2022-10-07T04:37:58.730Z,31.00
2022-10-07T04:38:25.244Z,31.40
2022-10-07T04:38:50.684Z,31.10
2022-10-07T04:39:13.800Z,31.10
2022-10-07T04:39:59.153Z,31.60
2022-10-07T04:40:19.700Z,32.00
2022-10-07T04:40:44.477Z,31.90
2022-10-07T04:41:07.775Z,31.90
2022-10-07T04:41:30.559Z,32.90
2022-10-07T04:41:55.077Z,33.20
2022-10-07T04:42:36.405Z,33.50
2022-10-07T04:43:17.921Z,33.50
2022-10-07T04:43:41.006Z,33.30
2022-10-07T04:44:04.350Z,33.10
2022-10-07T04:44:27.044Z,34.00
2022-10-07T04:44:51.245Z,34.10
2022-10-07T04:45:14.091Z,34.20
2022-10-07T04:45:37.072Z,34.90
2022-10-07T04:46:01.645Z,34.90
2022-10-07T04:46:24.502Z,34.00
2022-10-07T04:46:47.381Z,33.70
2022-10-07T04:47:12.449Z,33.20
2022-10-07T04:47:35.851Z,34.00
2022-10-07T04:47:58.896Z,34.10
2022-10-07T04:48:22.606Z,34.20
2022-10-07T04:48:45.822Z,34.20
2022-10-07T04:49:10.257Z,33.30
2022-10-07T04:49:32.937Z,33.20
2022-10-07T04:49:55.612Z,32.80
2022-10-07T04:50:18.402Z,32.80
2022-10-07T04:50:41.182Z,32.90
2022-10-07T04:51:03.939Z,33.30
2022-10-07T04:51:26.653Z,33.90
2022-10-07T04:51:49.353Z,34.00
2022-10-07T04:52:12.156Z,34.60
2022-10-07T04:52:34.989Z,33.70
2022-10-07T04:52:58.079Z,33.60
2022-10-07T04:53:20.833Z,34.10
2022-10-07T04:53:43.524Z,33.90
2022-10-07T04:54:07.206Z,33.80
2022-10-07T04:54:29.920Z,32.90
2022-10-07T04:54:53.640Z,32.80
2022-10-07T04:55:16.407Z,34.10
2022-10-07T04:55:40.041Z,34.10
2022-10-07T04:56:02.810Z,34.70
2022-10-07T04:56:25.584Z,34.90
2022-10-07T04:56:50.089Z,34.90
2022-10-07T04:57:13.804Z,34.60
2022-10-07T04:57:36.540Z,34.70
2022-10-07T04:57:59.329Z,34.80
2022-10-07T04:58:22.029Z,34.50
2022-10-07T04:58:44.696Z,35.20
2022-10-07T04:59:07.459Z,34.90
2022-10-07T04:59:31.645Z,35.30
2022-10-07T04:59:56.649Z,34.70
2022-10-07T05:00:19.489Z,34.00
2022-10-07T05:00:43.311Z,33.90
2022-10-07T05:01:09.376Z,34.00
2022-10-07T05:01:32.970Z,34.10
2022-10-07T05:01:55.857Z,34.30
2022-10-07T05:02:21.571Z,35.20
2022-10-07T05:02:46.611Z,35.30
2022-10-07T05:03:09.374Z,35.50
2022-10-07T05:03:32.630Z,34.90
2022-10-07T05:03:58.243Z,34.60
2022-10-07T05:04:20.954Z,34.90
2022-10-07T05:04:45.113Z,35.10
2022-10-07T05:05:10.636Z,35.40
2022-10-07T05:05:34.603Z,36.10
2022-10-07T05:06:05.561Z,35.80
2022-10-07T05:06:29.072Z,36.10
2022-10-07T05:06:51.808Z,36.00
2022-10-07T05:07:14.547Z,35.80
2022-10-07T05:07:37.262Z,36.30
2022-10-07T05:08:02.538Z,36.00
2022-10-07T05:08:25.593Z,35.50
2022-10-07T05:08:50.086Z,34.40
2022-10-07T05:09:12.934Z,34.00
2022-10-07T05:09:35.683Z,32.20
2022-10-07T05:09:58.394Z,31.10
2022-10-07T05:10:21.328Z,29.30
2022-10-07T05:10:44.138Z,30.00
2022-10-07T05:11:06.824Z,30.20
2022-10-07T05:11:29.630Z,29.60
2022-10-07T05:11:53.814Z,27.40
2022-10-07T05:12:18.144Z,27.90
2022-10-07T05:12:41.769Z,29.20
2022-10-07T05:13:04.639Z,31.20
2022-10-07T05:13:27.539Z,31.20
2022-10-07T05:13:50.560Z,31.80
2022-10-07T05:14:13.268Z,31.20
2022-10-07T05:14:36.131Z,31.20
2022-10-07T05:15:01.713Z,31.00
2022-10-07T05:15:24.461Z,31.60
2022-10-07T05:15:50.965Z,31.60
2022-10-07T05:16:13.803Z,30.00
2022-10-07T05:16:36.666Z,29.70